createdAt,value
2018-01-23T00:00:31.510Z,5.00
2018-01-23T00:02:59.013Z,5.00
2018-01-23T00:05:26.617Z,5.00
2018-01-23T00:07:54.200Z,5.10
2018-01-23T00:10:21.777Z,5.10
2018-01-23T00:12:49.418Z,5.10
2018-01-23T00:15:17.003Z,5.10
2018-01-23T00:17:44.633Z,5.10
2018-01-23T00:20:12.281Z,5.10
2018-01-23T00:22:39.823Z,5.00
2018-01-23T00:25:07.564Z,5.00
2018-01-23T00:27:35.324Z,5.00
2018-01-23T00:30:03.014Z,5.00
2018-01-23T00:32:30.556Z,5.00
2018-01-23T00:34:58.158Z,5.00
2018-01-23T00:37:25.734Z,4.90
2018-01-23T00:39:54.179Z,4.80
2018-01-23T00:42:21.739Z,4.80
2018-01-23T00:44:49.244Z,4.80
2018-01-23T00:47:16.818Z,4.80
2018-01-23T00:49:44.449Z,4.80
2018-01-23T00:52:12.171Z,4.80
2018-01-23T00:54:40.369Z,4.80
2018-01-23T00:57:07.998Z,4.80
2018-01-23T00:59:35.570Z,4.80
2018-01-23T01:02:03.620Z,4.70
2018-01-23T01:04:31.408Z,4.70
2018-01-23T01:06:59.061Z,4.80
2018-01-23T01:09:26.791Z,4.80
2018-01-23T01:11:54.424Z,4.80
2018-01-23T01:14:22.126Z,4.80
2018-01-23T01:16:49.812Z,4.80
2018-01-23T01:19:18.596Z,4.80
2018-01-23T01:21:46.427Z,4.80
2018-01-23T01:24:22.807Z,4.80
2018-01-23T01:26:50.554Z,4.70
2018-01-23T01:29:18.957Z,4.70
2018-01-23T01:37:22.879Z,4.70
2018-01-23T01:39:50.748Z,4.80
2018-01-23T01:42:18.438Z,4.70
2018-01-23T01:44:55.639Z,4.70
2018-01-23T01:47:29.503Z,4.70
2018-01-23T01:49:57.141Z,4.70
2018-01-23T01:52:24.962Z,4.70
2018-01-23T01:54:52.600Z,4.70
2018-01-23T01:57:20.385Z,4.70
2018-01-23T01:59:48.622Z,4.80
2018-01-23T02:02:16.313Z,4.80
2018-01-23T02:04:43.964Z,4.80
2018-01-23T02:07:13.764Z,4.80
2018-01-23T06:16:55.460Z,5.00
2018-01-23T06:19:42.804Z,5.00
2018-01-23T06:22:26.511Z,4.90
2018-01-23T06:25:10.079Z,5.00
2018-01-23T06:27:38.602Z,5.00
2018-01-23T06:33:05.646Z,5.10
2018-01-23T06:35:33.104Z,5.10
2018-01-23T06:38:00.568Z,5.10
2018-01-23T06:40:28.014Z,5.00
2018-01-23T06:42:55.473Z,4.90
2018-01-23T06:45:23.207Z,4.90
2018-01-23T06:47:51.778Z,4.90
2018-01-23T06:50:20.019Z,5.00
2018-01-23T06:52:47.470Z,5.00
2018-01-23T06:55:14.936Z,5.10
2018-01-23T06:57:42.414Z,5.00
2018-01-23T07:00:10.907Z,5.10
2018-01-23T07:02:38.529Z,5.10
2018-01-23T07:05:06.548Z,5.10
2018-01-23T07:07:34.092Z,5.20
2018-01-23T07:10:01.573Z,5.20
2018-01-23T07:12:29.050Z,5.30
2018-01-23T07:14:56.518Z,5.30
2018-01-23T07:17:24.037Z,5.40
2018-01-23T07:19:51.505Z,5.40
2018-01-23T07:22:19.004Z,5.40
2018-01-23T07:24:46.469Z,5.30
2018-01-23T07:27:13.956Z,5.30
2018-01-23T07:29:41.462Z,5.40
2018-01-23T07:32:08.947Z,5.40
2018-01-23T07:34:36.442Z,5.50
2018-01-23T07:37:04.085Z,5.60
2018-01-23T07:39:31.605Z,5.60
2018-01-23T07:41:59.070Z,5.70
2018-01-23T07:44:26.572Z,5.70
2018-01-23T07:46:54.033Z,5.70
2018-01-23T07:49:21.537Z,5.70
2018-01-23T07:51:49.031Z,5.70
2018-01-23T07:54:16.485Z,5.70
2018-01-23T07:56:44.708Z,5.80
2018-01-23T07:59:12.173Z,5.80
2018-01-23T08:01:41.167Z,5.90
2018-01-23T08:04:08.622Z,5.90
2018-01-23T08:06:36.067Z,5.90
2018-01-23T08:09:03.533Z,5.90
2018-01-23T08:11:31.038Z,6.00
2018-01-23T08:13:58.493Z,6.10
2018-01-23T08:16:25.945Z,6.10
2018-01-23T08:18:54.195Z,6.10
2018-01-23T08:21:21.704Z,6.10
2018-01-23T08:23:49.104Z,6.20
2018-01-23T08:26:16.565Z,6.30
2018-01-23T08:28:44.213Z,6.30
2018-01-23T08:31:11.704Z,6.40
2018-01-23T08:33:39.191Z,6.50
2018-01-23T08:36:06.696Z,6.50
2018-01-23T08:38:34.173Z,6.60
2018-01-23T08:41:01.656Z,6.70
2018-01-23T08:43:29.119Z,6.70
2018-01-23T08:45:56.571Z,6.80
2018-01-23T08:48:24.023Z,6.90
2018-01-23T08:50:52.252Z,7.00
2018-01-23T08:53:19.759Z,7.00
2018-01-23T08:55:47.214Z,7.00
2018-01-23T08:58:15.456Z,7.10
2018-01-23T09:00:42.930Z,7.10
2018-01-23T09:03:10.393Z,7.20
2018-01-23T09:05:37.849Z,7.30
2018-01-23T09:08:06.094Z,7.40
2018-01-23T09:10:33.557Z,7.40
2018-01-23T09:13:01.837Z,7.40
2018-01-23T09:15:29.310Z,7.50
2018-01-23T09:17:57.540Z,7.60
2018-01-23T09:20:25.001Z,7.60
2018-01-23T09:22:52.460Z,7.70
2018-01-23T09:25:19.946Z,7.80
2018-01-23T09:27:47.397Z,7.70
2018-01-23T09:30:14.877Z,7.70
2018-01-23T09:32:43.100Z,7.60
2018-01-23T09:35:10.816Z,7.60
2018-01-23T09:37:38.317Z,7.80
2018-01-23T09:40:05.779Z,7.90
2018-01-23T09:42:33.242Z,7.90
2018-01-23T09:45:00.735Z,8.00
2018-01-23T09:47:28.222Z,8.00
2018-01-23T09:49:55.712Z,8.10
2018-01-23T09:52:23.173Z,8.20
2018-01-23T09:54:50.661Z,8.30
2018-01-23T09:57:18.145Z,8.40
2018-01-23T09:59:45.653Z,8.40
2018-01-23T10:02:13.105Z,8.30
2018-01-23T10:04:40.562Z,8.30
2018-01-23T10:07:08.051Z,8.30
2018-01-23T10:09:35.529Z,8.40
2018-01-23T10:12:02.990Z,8.40
2018-01-23T10:14:30.443Z,8.50
2018-01-23T10:16:57.917Z,8.50
2018-01-23T10:19:25.392Z,8.70
2018-01-23T10:21:52.859Z,8.80
2018-01-23T10:24:20.351Z,8.80
2018-01-23T10:26:47.814Z,8.90
2018-01-23T10:29:17.114Z,8.90
2018-01-23T10:31:45.386Z,8.90
2018-01-23T10:34:12.855Z,8.80
2018-01-23T10:36:41.125Z,8.60
2018-01-23T10:39:08.610Z,8.60
2018-01-23T10:41:36.112Z,8.50
2018-01-23T10:44:03.620Z,8.50
2018-01-23T10:46:31.154Z,8.60
2018-01-23T10:48:58.650Z,8.60
2018-01-23T10:51:26.172Z,8.60
2018-01-23T10:53:54.467Z,8.60
2018-01-23T10:56:21.962Z,8.60
2018-01-23T10:58:49.430Z,8.60
2018-01-23T11:01:16.916Z,8.60
2018-01-23T11:03:44.458Z,8.70
2018-01-23T11:06:11.917Z,8.60
2018-01-23T11:08:39.391Z,8.60
2018-01-23T11:11:06.882Z,8.60
2018-01-23T11:13:34.403Z,8.60
2018-01-23T11:16:02.995Z,8.70
2018-01-23T11:18:30.598Z,8.70
2018-01-23T11:20:58.078Z,8.70
2018-01-23T11:23:25.571Z,8.80
2018-01-23T11:25:53.033Z,8.80
2018-01-23T11:28:20.482Z,8.80
2018-01-23T11:30:47.947Z,8.80
2018-01-23T11:33:15.429Z,8.80
2018-01-23T11:35:42.901Z,8.80
2018-01-23T11:38:10.396Z,8.90
2018-01-23T11:40:37.844Z,8.90
2018-01-23T11:43:05.310Z,8.90
2018-01-23T11:45:32.767Z,8.80
2018-01-23T11:48:00.222Z,8.80
2018-01-23T11:50:27.686Z,8.90
2018-01-23T11:52:55.143Z,8.90
2018-01-23T11:55:22.608Z,8.80
2018-01-23T11:57:50.085Z,8.80
2018-01-23T12:00:17.541Z,8.80
2018-01-23T12:02:45.014Z,8.80
2018-01-23T12:05:12.497Z,8.80
2018-01-23T12:07:39.983Z,8.80
2018-01-23T12:10:07.449Z,8.80
2018-01-23T12:12:34.919Z,8.80
2018-01-23T12:15:02.393Z,8.80
2018-01-23T12:17:29.865Z,8.80
2018-01-23T12:19:57.365Z,8.80
2018-01-23T12:22:24.837Z,8.80
2018-01-23T12:24:52.649Z,8.90
2018-01-23T12:27:20.113Z,8.90
2018-01-23T12:29:47.584Z,8.90
2018-01-23T12:32:15.054Z,8.90
2018-01-23T12:34:42.545Z,8.90
2018-01-23T12:37:10.396Z,8.90
2018-01-23T12:39:38.662Z,8.70
2018-01-23T12:42:06.178Z,8.70
2018-01-23T12:44:33.741Z,8.70
2018-01-23T12:47:01.241Z,8.60
2018-01-23T12:49:28.757Z,8.60
2018-01-23T12:51:56.213Z,8.60
2018-01-23T12:54:23.785Z,8.70
2018-01-23T12:56:51.261Z,8.80
2018-01-23T12:59:18.740Z,9.00
2018-01-23T13:01:46.981Z,9.00
2018-01-23T13:04:14.469Z,9.00
2018-01-23T13:06:42.759Z,9.00
2018-01-23T13:09:10.230Z,9.00
2018-01-23T13:11:37.733Z,9.10
2018-01-23T13:14:05.219Z,9.20
2018-01-23T13:16:32.717Z,9.20
2018-01-23T13:19:00.201Z,9.20
2018-01-23T13:21:27.678Z,9.20
2018-01-23T13:23:55.156Z,9.20
2018-01-23T13:26:22.643Z,9.10
2018-01-23T13:28:50.138Z,9.20
2018-01-23T13:31:17.624Z,9.20
2018-01-23T13:33:45.873Z,9.20
2018-01-23T13:36:13.371Z,9.20
2018-01-23T13:38:40.857Z,9.20
2018-01-23T13:41:08.345Z,9.20
2018-01-23T13:43:35.790Z,9.20
2018-01-23T13:46:03.264Z,9.10
2018-01-23T13:48:30.741Z,9.00
2018-01-23T13:50:58.200Z,9.10
2018-01-23T13:53:26.516Z,8.90
2018-01-23T13:55:53.994Z,8.90
2018-01-23T13:58:21.528Z,8.90
2018-01-23T14:00:48.942Z,8.90
2018-01-23T14:03:16.442Z,8.80
2018-01-23T14:05:44.649Z,8.90
2018-01-23T14:08:12.142Z,8.90
2018-01-23T14:10:40.404Z,8.80
2018-01-23T14:13:07.853Z,8.80
2018-01-23T14:15:35.406Z,8.80
2018-01-23T14:18:03.253Z,8.90
2018-01-23T14:20:30.757Z,8.90
2018-01-23T14:22:58.267Z,8.90
2018-01-23T14:25:27.300Z,8.90
2018-01-23T14:27:55.061Z,8.90
2018-01-23T14:30:22.572Z,8.90
2018-01-23T14:32:50.051Z,8.80
2018-01-23T14:35:17.796Z,8.70
2018-01-23T14:37:45.772Z,8.80
2018-01-23T14:40:13.627Z,8.70
2018-01-23T14:42:41.213Z,8.70
2018-01-23T14:45:08.754Z,8.70
2018-01-23T14:47:36.235Z,8.70
2018-01-23T14:50:03.750Z,8.70
2018-01-23T14:52:31.243Z,8.60
2018-01-23T14:54:58.814Z,8.70
2018-01-23T14:57:26.442Z,8.60
2018-01-23T14:59:53.968Z,8.60
2018-01-23T15:02:21.444Z,8.50
2018-01-23T15:04:48.960Z,8.50
2018-01-23T15:07:16.510Z,8.50
2018-01-23T15:09:44.011Z,8.50
2018-01-23T15:12:11.485Z,8.60
2018-01-23T15:14:38.943Z,8.60
2018-01-23T15:17:06.518Z,8.60
2018-01-23T15:19:34.019Z,8.60
2018-01-23T15:22:02.017Z,8.60
2018-01-23T15:24:29.550Z,8.60
2018-01-23T15:26:57.265Z,8.60
2018-01-23T15:29:24.839Z,8.70
2018-01-23T15:31:52.328Z,8.70
2018-01-23T15:34:19.799Z,8.60
2018-01-23T15:36:47.252Z,8.50
2018-01-23T15:39:14.732Z,8.50
2018-01-23T15:41:42.187Z,8.40
2018-01-23T15:44:09.674Z,8.50
2018-01-23T15:46:37.231Z,8.40
2018-01-23T15:49:04.722Z,8.40
2018-01-23T15:51:32.993Z,8.40
2018-01-23T15:54:00.526Z,8.40
2018-01-23T15:56:28.714Z,8.40
2018-01-23T15:58:56.395Z,8.40
2018-01-23T16:01:24.079Z,8.30
2018-01-23T16:03:51.779Z,8.30
2018-01-23T16:06:25.377Z,8.30
2018-01-23T16:08:52.930Z,8.30
2018-01-23T16:11:20.447Z,8.30
2018-01-23T16:13:47.938Z,8.30
2018-01-23T16:16:15.462Z,8.30
2018-01-23T16:18:43.001Z,8.30
2018-01-23T16:21:10.501Z,8.30
2018-01-23T16:23:37.985Z,8.30
2018-01-23T16:26:05.490Z,8.30
2018-01-23T16:28:33.007Z,8.30
2018-01-23T16:31:00.505Z,8.30
2018-01-23T16:33:28.018Z,8.30
2018-01-23T16:35:55.496Z,8.30
2018-01-23T16:38:22.961Z,8.30
2018-01-23T16:40:51.210Z,8.10
2018-01-23T16:43:18.674Z,8.10
2018-01-23T16:45:46.138Z,8.20
2018-01-23T16:48:13.609Z,8.20
2018-01-23T16:50:41.111Z,8.20
2018-01-23T16:53:08.629Z,8.30
2018-01-23T16:55:36.131Z,8.30
2018-01-23T16:58:03.639Z,8.30
2018-01-23T17:00:32.082Z,8.30
2018-01-23T17:02:59.850Z,8.40
2018-01-23T17:05:29.513Z,8.30
2018-01-23T17:07:57.783Z,8.30
2018-01-23T17:10:26.688Z,8.30
2018-01-23T17:12:54.223Z,8.30
2018-01-23T17:15:22.136Z,8.30
2018-01-23T17:17:50.113Z,8.30
2018-01-23T17:20:21.520Z,8.30
2018-01-23T17:22:52.576Z,8.20
2018-01-23T17:25:23.029Z,8.20
2018-01-23T17:27:51.888Z,8.20
2018-01-23T17:30:19.585Z,8.20
2018-01-23T17:32:47.062Z,8.20
2018-01-23T17:35:14.542Z,8.10
2018-01-23T17:37:45.858Z,8.10
2018-01-23T17:40:13.339Z,8.10
2018-01-23T17:42:41.631Z,8.10
2018-01-23T17:45:09.561Z,8.10
2018-01-23T17:47:37.143Z,8.10
2018-01-23T17:50:04.668Z,8.10
2018-01-23T17:52:32.374Z,7.90
2018-01-23T17:54:59.926Z,7.90
2018-01-23T17:57:27.436Z,8.00
2018-01-23T17:59:54.920Z,7.90
2018-01-23T18:02:22.418Z,7.90
2018-01-23T18:04:49.877Z,7.90
2018-01-23T18:07:17.336Z,7.90
2018-01-23T18:09:44.810Z,7.80
2018-01-23T18:12:12.271Z,7.80
2018-01-23T18:14:39.744Z,7.80
2018-01-23T18:17:07.253Z,7.80
2018-01-23T18:19:34.757Z,7.80
2018-01-23T18:22:02.252Z,7.80
2018-01-23T18:24:29.703Z,7.80
2018-01-23T18:26:57.182Z,7.80
2018-01-23T18:29:25.429Z,7.80
2018-01-23T18:31:52.914Z,7.80
2018-01-23T18:34:20.382Z,7.80
2018-01-23T18:36:47.845Z,7.70
2018-01-23T18:39:15.289Z,7.70
2018-01-23T18:41:42.753Z,7.70
2018-01-23T18:44:10.215Z,7.70
2018-01-23T18:46:37.961Z,7.70
2018-01-23T18:49:05.412Z,7.60
2018-01-23T18:51:33.653Z,7.60
2018-01-23T18:54:01.168Z,7.50
2018-01-23T18:56:28.659Z,7.60
2018-01-23T18:58:56.175Z,7.60
2018-01-23T19:01:23.692Z,7.60
2018-01-23T19:03:51.189Z,7.70
2018-01-23T19:06:18.749Z,7.70
2018-01-23T19:08:46.306Z,7.70
2018-01-23T19:11:13.846Z,7.70
2018-01-23T19:13:41.604Z,7.70
2018-01-23T19:16:09.349Z,7.60
2018-01-23T19:18:38.948Z,7.50
2018-01-23T19:21:15.102Z,7.50
2018-01-23T19:23:42.687Z,7.40
2018-01-23T19:26:10.324Z,7.40
2018-01-23T19:28:37.830Z,7.30
2018-01-23T19:31:12.377Z,7.30
2018-01-23T19:33:42.062Z,7.30
2018-01-23T19:36:11.343Z,7.40
2018-01-23T19:38:54.945Z,7.40
2018-01-23T19:41:22.575Z,7.40
2018-01-23T19:43:50.544Z,7.30
2018-01-23T19:46:37.367Z,7.30
2018-01-23T19:49:07.007Z,7.30
2018-01-23T19:51:34.758Z,7.40
2018-01-23T19:54:02.270Z,7.40
2018-01-23T19:56:34.667Z,7.40
2018-01-23T19:59:02.351Z,7.40
2018-01-23T20:01:31.353Z,7.40
2018-01-23T20:04:00.713Z,7.40
2018-01-23T20:06:28.981Z,7.40
2018-01-23T20:40:47.139Z,7.40
2018-01-23T20:43:14.618Z,7.30
2018-01-23T20:45:42.151Z,7.40
2018-01-23T20:48:09.674Z,7.40
2018-01-23T20:50:37.194Z,7.40
2018-01-23T20:53:04.732Z,7.40
2018-01-23T20:55:32.325Z,7.50
2018-01-23T20:58:08.202Z,7.50
2018-01-23T21:00:37.705Z,7.50
2018-01-23T21:03:07.946Z,7.50
2018-01-23T21:05:39.697Z,7.50
2018-01-23T21:08:08.284Z,7.40
2018-01-23T21:10:38.578Z,7.50
2018-01-23T21:13:06.359Z,7.50
2018-01-23T21:15:34.671Z,7.60
2018-01-23T21:18:02.400Z,7.50
2018-01-23T21:20:29.890Z,7.60
2018-01-23T21:22:57.533Z,7.60
2018-01-23T21:25:25.176Z,7.60
2018-01-23T21:27:53.573Z,7.70
2018-01-23T21:30:21.132Z,7.70
2018-01-23T21:32:50.793Z,7.70
2018-01-23T21:35:18.454Z,7.70
2018-01-23T21:37:50.072Z,7.80
2018-01-23T21:43:14.404Z,7.80
2018-01-23T21:45:48.015Z,7.70
2018-01-23T21:48:30.555Z,7.70
2018-01-23T22:15:22.071Z,7.70
2018-01-23T22:21:22.890Z,7.70
2018-01-23T22:23:54.683Z,7.70
2018-01-23T22:26:23.140Z,7.80
2018-01-23T22:31:35.903Z,7.90
2018-01-23T22:36:52.816Z,7.90
2018-01-23T22:39:21.316Z,8.00
2018-01-23T22:41:52.473Z,8.00
2018-01-23T22:44:20.901Z,8.00
2018-01-23T22:47:02.183Z,8.00
2018-01-23T23:00:20.711Z,8.10
2018-01-23T23:05:24.491Z,8.20
2018-01-23T23:07:52.274Z,8.20
2018-01-23T23:10:21.502Z,8.30
2018-01-23T23:12:52.336Z,8.30
2018-01-23T23:15:22.743Z,8.30
2018-01-23T23:17:56.033Z,8.40
2018-01-23T23:20:24.224Z,8.40
2018-01-23T23:22:51.810Z,8.40
2018-01-23T23:25:20.075Z,8.40
2018-01-23T23:27:47.758Z,8.40
2018-01-23T23:30:15.376Z,8.40
2018-01-23T23:32:49.684Z,8.50
2018-01-23T23:35:18.372Z,8.40
2018-01-23T23:37:46.517Z,8.50
2018-01-23T23:40:14.779Z,8.50
2018-01-23T23:42:47.735Z,8.50
2018-01-23T23:45:21.051Z,8.50
2018-01-23T23:47:54.003Z,8.50
2018-01-23T23:53:09.524Z,8.60
2018-01-23T23:55:48.569Z,8.70
2018-01-23T23:58:18.684Z,8.70
